Time;durP1;ratioP1;P1;durP2;ratioP2;P2;SDS_P1;SDS_P2;PMS_P1;PMS_P2;Temp;Humidity;BMP_temperature;BMP_pressure;BME280_temperature;BME280_humidity;BME280_pressure;Samples;Min_cycle;Max_cycle;Signal;HPM_P1;HPM_P2
2022/08/25 00:00:22;;;;;;;18.77;8.83;;;19.30;99.90;;;;;;5267164;28;20186;-50
2022/08/25 00:02:54;;;;;;;8.90;8.03;;;19.30;99.90;;;;;;5266030;28;20434;-50
2022/08/25 00:05:28;;;;;;;8.17;6.93;;;19.20;99.90;;;;;;5258618;28;20603;-50
2022/08/25 00:08:01;;;;;;;14.80;8.93;;;19.20;99.90;;;;;;5259242;28;20978;-50
2022/08/25 00:10:34;;;;;;;14.10;9.30;;;19.20;99.90;;;;;;5262195;28;20982;-50
2022/08/25 00:13:05;;;;;;;13.63;8.90;;;19.20;99.90;;;;;;5262122;28;20556;-50
2022/08/25 00:15:37;;;;;;;9.30;8.47;;;19.10;99.90;;;;;;5263782;28;20443;-50
2022/08/25 00:18:07;;;;;;;25.10;10.57;;;19.10;99.90;;;;;;5267210;28;20447;-50
2022/08/25 00:20:38;;;;;;;12.67;9.67;;;19.10;99.90;;;;;;5275499;28;20446;-53
2022/08/25 00:23:08;;;;;;;13.03;8.73;;;19.10;99.90;;;;;;5258498;28;20177;-50
2022/08/25 00:25:39;;;;;;;11.80;9.13;;;19.10;99.90;;;;;;5272245;28;20208;-52
2022/08/25 00:28:10;;;;;;;15.07;9.60;;;19.10;99.90;;;;;;5258347;28;20738;-51
2022/08/25 00:30:41;;;;;;;23.40;9.70;;;19.00;99.90;;;;;;5263248;28;20178;-50
2022/08/25 00:33:12;;;;;;;10.60;8.00;;;19.00;99.90;;;;;;5267012;28;20206;-49
2022/08/25 00:35:43;;;;;;;13.93;8.73;;;19.00;99.90;;;;;;5254202;28;20426;-52
2022/08/25 00:38:15;;;;;;;13.97;8.90;;;18.90;99.90;;;;;;5272959;28;20264;-50
2022/08/25 00:41:04;;;;;;;15.00;9.23;;;18.90;99.90;;;;;;5256948;28;20519;-49
2022/08/25 00:43:50;;;;;;;8.77;7.77;;;18.90;99.90;;;;;;5257444;28;20486;-51
2022/08/25 00:46:31;;;;;;;10.60;9.40;;;18.90;99.90;;;;;;5261522;28;20464;-49
2022/08/25 00:49:16;;;;;;;15.33;10.07;;;18.90;99.90;;;;;;5267974;28;20784;-50
2022/08/25 00:52:10;;;;;;;17.17;8.87;;;18.80;99.90;;;;;;5271623;28;20451;-49
2022/08/25 00:54:48;;;;;;;12.93;9.23;;;18.90;99.90;;;;;;5231500;28;20439;-51
2022/08/25 00:57:32;;;;;;;13.53;9.47;;;18.80;99.90;;;;;;5266357;28;20442;-50
2022/08/25 01:00:16;;;;;;;13.33;8.70;;;18.80;99.90;;;;;;5266729;28;20816;-49
2022/08/25 01:02:46;;;;;;;13.80;9.20;;;18.80;99.90;;;;;;5253129;28;20439;-49
2022/08/25 01:05:18;;;;;;;16.50;8.90;;;18.80;99.90;;;;;;5260329;28;20423;-50
2022/08/25 01:07:49;;;;;;;9.77;8.47;;;18.80;99.90;;;;;;5257191;28;20202;-51
2022/08/25 01:10:21;;;;;;;12.43;9.23;;;18.70;99.90;;;;;;5258017;28;20533;-49
2022/08/25 01:12:58;;;;;;;18.60;8.93;;;18.70;99.90;;;;;;5262941;28;20490;-50
2022/08/25 01:15:30;;;;;;;14.80;9.87;;;18.70;99.90;;;;;;5259759;28;20427;-49
2022/08/25 01:18:01;;;;;;;20.93;10.20;;;18.70;99.90;;;;;;5271550;28;20451;-49
2022/08/25 01:20:33;;;;;;;9.07;8.23;;;18.70;99.90;;;;;;5271879;28;20503;-49
2022/08/25 01:23:04;;;;;;;12.43;9.20;;;18.70;99.90;;;;;;5270851;28;20481;-51
2022/08/25 01:25:55;;;;;;;12.73;10.80;;;18.60;99.90;;;;;;5240734;28;20456;-50
2022/08/25 01:28:28;;;;;;;10.73;9.63;;;18.70;99.90;;;;;;5253977;28;20196;-50
2022/08/25 01:30:59;;;;;;;16.47;10.27;;;18.60;99.90;;;;;;5270728;28;20440;-50
2022/08/25 01:33:30;;;;;;;14.43;11.00;;;18.60;99.90;;;;;;5255950;28;20447;-50
2022/08/25 01:36:01;;;;;;;13.30;10.57;;;18.60;99.90;;;;;;5254489;28;20681;-50
2022/08/25 01:38:31;;;;;;;13.57;8.90;;;18.60;99.90;;;;;;5272141;28;20200;-51
2022/08/25 01:41:02;;;;;;;9.23;8.20;;;18.60;99.90;;;;;;5257482;28;20181;-50
2022/08/25 01:43:37;;;;;;;9.90;8.90;;;18.60;99.90;;;;;;5260420;28;20193;-49
2022/08/25 01:46:08;;;;;;;11.07;9.40;;;18.50;99.90;;;;;;5267060;28;20188;-49
2022/08/25 01:48:38;;;;;;;14.37;9.60;;;18.50;99.90;;;;;;5264335;28;20869;-49
2022/08/25 01:51:09;;;;;;;13.37;10.30;;;18.50;99.90;;;;;;5265065;28;20209;-49
2022/08/25 01:53:40;;;;;;;11.93;10.30;;;18.50;99.90;;;;;;5283936;28;20208;-49
2022/08/25 01:56:14;;;;;;;10.03;9.00;;;18.50;99.90;;;;;;5273728;28;20240;-51
2022/08/25 01:58:47;;;;;;;15.90;9.87;;;18.50;99.90;;;;;;5264449;28;20565;-50
2022/08/25 02:01:22;;;;;;;13.90;9.47;;;18.40;99.90;;;;;;5273139;28;20469;-50
2022/08/25 02:03:54;;;;;;;21.17;9.37;;;18.40;99.90;;;;;;5272347;28;20945;-49
2022/08/25 02:06:31;;;;;;;16.03;9.87;;;18.50;99.90;;;;;;5254775;28;20883;-50
2022/08/25 02:09:06;;;;;;;14.27;9.40;;;18.40;99.90;;;;;;5272469;28;20432;-50
2022/08/25 02:11:39;;;;;;;19.40;10.90;;;18.40;99.90;;;;;;5268967;28;20574;-52
2022/08/25 02:14:11;;;;;;;14.00;9.43;;;18.40;99.90;;;;;;5268010;28;20420;-50
2022/08/25 02:16:47;;;;;;;21.00;10.53;;;18.40;99.90;;;;;;5276793;28;20458;-49
2022/08/25 02:19:19;;;;;;;11.57;9.10;;;18.40;99.90;;;;;;5271957;28;20440;-50
2022/08/25 02:21:50;;;;;;;15.10;8.90;;;18.30;99.90;;;;;;5264188;28;20934;-49
2022/08/25 02:24:20;;;;;;;8.80;7.73;;;18.40;99.90;;;;;;5254031;28;20975;-50
2022/08/25 02:26:51;;;;;;;12.70;8.87;;;18.30;99.90;;;;;;5252159;28;20479;-49
2022/08/25 02:29:22;;;;;;;12.23;8.60;;;18.30;99.90;;;;;;5260583;28;20266;-49
2022/08/25 02:31:53;;;;;;;15.97;8.83;;;18.30;99.90;;;;;;5259109;28;20213;-51
2022/08/25 02:34:23;;;;;;;13.90;9.00;;;18.30;99.90;;;;;;5282426;28;20185;-49
2022/08/25 02:36:54;;;;;;;24.87;9.47;;;18.20;99.90;;;;;;5265081;28;20611;-50
2022/08/25 02:39:24;;;;;;;14.87;8.50;;;18.20;99.90;;;;;;5258136;28;20190;-50
2022/08/25 02:41:55;;;;;;;16.40;9.43;;;18.20;99.90;;;;;;5269326;28;20193;-49
2022/08/25 02:44:26;;;;;;;18.00;9.20;;;18.20;99.90;;;;;;5265103;28;20186;-50
2022/08/25 02:46:57;;;;;;;9.90;7.87;;;18.20;99.90;;;;;;5258148;28;20244;-48
2022/08/25 02:49:27;;;;;;;15.73;10.47;;;18.20;99.90;;;;;;5266154;28;20193;-49
2022/08/25 02:51:59;;;;;;;13.50;10.80;;;18.20;99.90;;;;;;5249306;28;20979;-50
2022/08/25 02:54:29;;;;;;;9.73;8.37;;;18.20;99.90;;;;;;5253393;28;20265;-50
2022/08/25 02:57:00;;;;;;;26.47;9.10;;;18.20;99.90;;;;;;5250506;28;20519;-50
2022/08/25 02:59:31;;;;;;;19.23;9.13;;;18.20;99.90;;;;;;5265788;28;20189;-50
2022/08/25 03:02:02;;;;;;;11.20;9.50;;;18.20;99.90;;;;;;5258771;28;20178;-51
2022/08/25 03:04:32;;;;;;;16.53;9.90;;;18.20;99.90;;;;;;5256322;28;20211;-49
2022/08/25 03:07:04;;;;;;;12.80;10.63;;;18.10;99.90;;;;;;5249129;28;20456;-49
2022/08/25 03:09:35;;;;;;;12.43;11.13;;;18.10;99.90;;;;;;5261210;28;20221;-49
2022/08/25 03:12:06;;;;;;;19.83;10.17;;;18.10;99.90;;;;;;5261589;28;22064;-50
2022/08/25 03:14:38;;;;;;;13.40;8.87;;;18.20;99.90;;;;;;5266904;28;20190;-50
2022/08/25 03:17:08;;;;;;;14.47;11.07;;;18.10;99.90;;;;;;5258042;28;20248;-51
2022/08/25 03:19:39;;;;;;;15.70;11.23;;;18.10;99.90;;;;;;5254368;28;20948;-50
2022/08/25 03:22:10;;;;;;;16.30;11.27;;;18.00;99.90;;;;;;5255319;28;20186;-50
2022/08/25 03:24:40;;;;;;;18.67;12.17;;;18.00;99.90;;;;;;5258121;28;20187;-48
2022/08/25 03:27:11;;;;;;;18.17;11.30;;;18.00;99.90;;;;;;5256134;22;20240;-51
2022/08/25 03:29:41;;;;;;;21.77;13.03;;;18.00;99.90;;;;;;5245284;28;20257;-50
2022/08/25 03:32:12;;;;;;;14.93;12.60;;;17.90;99.90;;;;;;5231307;28;20198;-51
2022/08/25 03:34:43;;;;;;;19.80;13.03;;;17.90;99.90;;;;;;5238734;28;20614;-49
2022/08/25 03:37:14;;;;;;;17.70;11.90;;;17.90;99.90;;;;;;5246406;28;20484;-51
2022/08/25 03:39:44;;;;;;;17.47;12.20;;;17.90;99.90;;;;;;5234256;28;20175;-51
2022/08/25 03:42:15;;;;;;;17.57;12.80;;;17.90;99.90;;;;;;5243479;28;20192;-51
2022/08/25 03:44:46;;;;;;;22.90;13.87;;;17.90;99.90;;;;;;5241462;28;20642;-50
2022/08/25 03:47:16;;;;;;;19.30;13.63;;;17.90;99.90;;;;;;5226983;28;20211;-48
2022/08/25 03:49:47;;;;;;;19.77;12.90;;;17.80;99.90;;;;;;5243577;28;20193;-49
2022/08/25 03:52:17;;;;;;;17.43;13.60;;;17.80;99.90;;;;;;5229598;28;20600;-51
2022/08/25 03:54:48;;;;;;;24.67;15.90;;;17.80;99.90;;;;;;5229742;28;20255;-51
2022/08/25 03:57:19;;;;;;;21.70;14.50;;;17.80;99.90;;;;;;5244436;28;20800;-50
2022/08/25 03:59:51;;;;;;;29.83;18.67;;;17.80;99.90;;;;;;5237430;28;20178;-51
2022/08/25 04:02:21;;;;;;;28.73;17.87;;;17.80;99.90;;;;;;5242074;28;20186;-50
2022/08/25 04:04:52;;;;;;;35.23;19.43;;;17.80;99.90;;;;;;5245856;28;20436;-51
2022/08/25 04:07:23;;;;;;;40.03;21.13;;;17.80;99.90;;;;;;5235109;28;20202;-51
2022/08/25 04:09:55;;;;;;;35.43;22.30;;;17.80;99.90;;;;;;5229113;28;20261;-50
2022/08/25 04:12:25;;;;;;;39.83;22.27;;;17.80;99.90;;;;;;5241325;28;20198;-52
2022/08/25 04:14:57;;;;;;;47.57;23.03;;;17.80;99.90;;;;;;5246514;28;20935;-47
2022/08/25 04:17:27;;;;;;;40.00;24.00;;;17.80;99.90;;;;;;5230626;28;20683;-52
2022/08/25 04:19:58;;;;;;;49.87;24.20;;;17.80;99.90;;;;;;5236458;28;20499;-52
2022/08/25 04:22:29;;;;;;;52.80;23.23;;;17.80;99.90;;;;;;5233344;28;20182;-51
2022/08/25 04:25:00;;;;;;;38.73;23.00;;;17.90;99.90;;;;;;5230133;28;20646;-51
2022/08/25 04:27:31;;;;;;;52.30;22.93;;;17.80;99.90;;;;;;5252366;28;20547;-50
2022/08/25 04:30:02;;;;;;;46.40;24.40;;;17.80;99.90;;;;;;5241210;28;20265;-49
2022/08/25 04:32:35;;;;;;;37.73;24.73;;;17.80;99.90;;;;;;5239119;28;20206;-51
2022/08/25 04:35:06;;;;;;;44.20;24.53;;;17.80;99.90;;;;;;5226747;28;20448;-53
2022/08/25 04:37:36;;;;;;;48.83;24.20;;;17.80;99.90;;;;;;5226711;28;20960;-52
2022/08/25 04:40:09;;;;;;;42.27;24.70;;;17.80;99.90;;;;;;5229581;28;20429;-50
2022/08/25 04:42:39;;;;;;;45.77;25.17;;;17.90;99.90;;;;;;5229540;28;20171;-50
2022/08/25 04:45:10;;;;;;;43.10;25.07;;;17.80;99.90;;;;;;5239151;28;20435;-53
2022/08/25 04:47:40;;;;;;;43.03;23.80;;;17.80;99.90;;;;;;5231086;28;20277;-50
2022/08/25 04:50:11;;;;;;;44.67;25.90;;;17.90;99.90;;;;;;5234017;28;20649;-50
2022/08/25 04:52:42;;;;;;;50.43;24.30;;;17.90;99.90;;;;;;5230679;28;20301;-50
2022/08/25 04:55:12;;;;;;;39.97;25.10;;;18.00;99.90;;;;;;5234808;28;20650;-49
2022/08/25 04:57:43;;;;;;;47.50;25.30;;;17.90;99.90;;;;;;5238208;28;20214;-51
2022/08/25 05:00:14;;;;;;;51.23;25.60;;;18.00;99.90;;;;;;5244652;28;20182;-53
2022/08/25 05:02:45;;;;;;;47.90;23.30;;;18.00;99.90;;;;;;5224375;28;20223;-50
2022/08/25 05:05:16;;;;;;;40.53;23.13;;;18.10;99.90;;;;;;5242328;28;20444;-52
2022/08/25 05:07:46;;;;;;;41.23;22.03;;;18.10;99.90;;;;;;5241071;28;20212;-49
2022/08/25 05:10:17;;;;;;;32.90;21.57;;;18.20;99.90;;;;;;5244037;28;20186;-51
2022/08/25 05:12:48;;;;;;;37.93;20.67;;;18.20;99.90;;;;;;5228860;28;20234;-53
2022/08/25 05:18:08;;;;;;;33.50;20.30;;;18.30;99.90;;;;;;5245041;28;20727;-49
2022/08/25 05:20:38;;;;;;;38.83;19.00;;;18.40;99.90;;;;;;5248173;28;20456;-48
2022/08/25 05:23:09;;;;;;;28.63;17.53;;;18.40;99.90;;;;;;5234768;28;20178;-50
2022/08/25 05:25:41;;;;;;;29.60;18.90;;;18.50;99.90;;;;;;5239664;28;20179;-52
2022/08/25 05:28:13;;;;;;;32.27;19.70;;;18.40;99.90;;;;;;5240203;28;20492;-52
2022/08/25 05:30:44;;;;;;;35.63;20.00;;;18.40;99.90;;;;;;5243855;28;20439;-52
2022/08/25 05:33:15;;;;;;;28.07;18.17;;;18.40;99.90;;;;;;5239548;28;20936;-51
2022/08/25 05:35:46;;;;;;;28.83;16.67;;;18.50;99.90;;;;;;5239654;28;20675;-52
2022/08/25 05:38:20;;;;;;;33.27;19.03;;;18.60;99.90;;;;;;5236645;28;20453;-50
2022/08/25 05:40:55;;;;;;;32.13;17.90;;;18.70;99.90;;;;;;5239718;28;20630;-50
2022/08/25 05:43:28;;;;;;;32.23;17.60;;;18.70;99.90;;;;;;5243357;28;20436;-53
2022/08/25 05:45:59;;;;;;;27.30;17.73;;;18.80;99.90;;;;;;5227562;28;20450;-53
2022/08/25 05:48:29;;;;;;;27.00;17.20;;;18.80;99.90;;;;;;5228608;28;20464;-49
2022/08/25 05:51:03;;;;;;;28.80;16.73;;;18.80;99.90;;;;;;5225501;28;20222;-51
2022/08/25 05:53:33;;;;;;;23.77;16.40;;;18.80;99.90;;;;;;5239270;28;20170;-51
2022/08/25 05:56:04;;;;;;;24.80;16.27;;;18.90;99.90;;;;;;5246475;28;20455;-48
2022/08/25 05:58:36;;;;;;;32.17;18.33;;;18.90;99.90;;;;;;5246222;28;20630;-49
2022/08/25 06:03:57;;;;;;;32.87;17.20;;;18.90;99.90;;;;;;5244545;28;20468;-48
2022/08/25 06:06:28;;;;;;;26.67;17.17;;;19.00;99.90;;;;;;5240465;28;20956;-50
2022/08/25 06:09:00;;;;;;;28.23;16.53;;;19.10;99.90;;;;;;5246343;28;20462;-52
2022/08/25 06:11:31;;;;;;;30.47;17.73;;;19.10;99.90;;;;;;5238174;28;20198;-50
2022/08/25 06:14:01;;;;;;;31.23;17.70;;;19.10;99.90;;;;;;5241253;28;20459;-51
2022/08/25 06:16:32;;;;;;;32.00;16.23;;;19.20;99.90;;;;;;5243531;28;20675;-52
2022/08/25 06:19:04;;;;;;;32.97;18.20;;;19.10;99.90;;;;;;5235757;28;20450;-51
2022/08/25 06:21:37;;;;;;;40.57;20.00;;;19.10;99.90;;;;;;5242979;28;20186;-49
2022/08/25 06:24:09;;;;;;;41.30;21.07;;;19.10;99.90;;;;;;5248999;28;20451;-52
2022/08/25 06:26:40;;;;;;;46.47;22.80;;;19.10;99.90;;;;;;5244853;28;20452;-52
2022/08/25 06:29:12;;;;;;;36.63;20.67;;;19.10;99.90;;;;;;5238196;28;20440;-53
2022/08/25 06:31:43;;;;;;;34.97;21.50;;;19.20;99.90;;;;;;5232999;28;20198;-52
2022/08/25 06:34:15;;;;;;;36.93;20.70;;;19.20;99.90;;;;;;5232741;28;20502;-53
2022/08/25 06:36:45;;;;;;;32.40;19.10;;;19.40;99.90;;;;;;5236100;28;23493;-53
2022/08/25 06:39:16;;;;;;;42.70;21.73;;;19.40;99.90;;;;;;5244717;28;20464;-55
2022/08/25 06:41:55;;;;;;;41.30;19.53;;;19.50;99.90;;;;;;5245158;28;20194;-54
2022/08/25 06:44:28;;;;;;;31.70;18.77;;;19.70;99.90;;;;;;5246193;28;20760;-52
2022/08/25 06:46:58;;;;;;;33.37;17.73;;;19.80;99.90;;;;;;5244525;28;20464;-52
2022/08/25 06:49:29;;;;;;;37.43;20.00;;;19.80;99.90;;;;;;5241433;28;20801;-51
2022/08/25 06:51:59;;;;;;;38.67;19.40;;;19.80;99.90;;;;;;5228116;28;20207;-53
2022/08/25 06:54:30;;;;;;;35.00;19.17;;;19.90;99.90;;;;;;5236724;28;20626;-51
2022/08/25 06:57:01;;;;;;;42.37;20.70;;;19.80;99.90;;;;;;5249794;28;20221;-53
2022/08/25 06:59:33;;;;;;;35.50;20.27;;;19.70;99.90;;;;;;5250738;28;20178;-52
2022/08/25 07:02:05;;;;;;;44.80;19.27;;;19.80;99.90;;;;;;5239648;28;20437;-51
2022/08/25 07:04:36;;;;;;;40.30;19.80;;;19.90;99.90;;;;;;5241679;28;20506;-52
2022/08/25 07:07:06;;;;;;;36.37;19.20;;;19.90;99.90;;;;;;5242187;28;20783;-51
2022/08/25 07:09:37;;;;;;;38.70;19.50;;;20.00;99.90;;;;;;5245595;28;20209;-53
2022/08/25 07:12:08;;;;;;;43.00;20.30;;;20.10;99.90;;;;;;5246816;28;20213;-52
2022/08/25 07:14:38;;;;;;;26.80;16.00;;;20.30;99.90;;;;;;5243817;28;20248;-47
2022/08/25 07:17:09;;;;;;;38.00;18.90;;;20.50;99.90;;;;;;5253301;28;20561;-47
2022/08/25 07:19:40;;;;;;;38.77;19.40;;;20.70;99.90;;;;;;5246956;28;20900;-49
2022/08/25 07:22:10;;;;;;;41.83;20.67;;;20.80;99.90;;;;;;5247727;28;20183;-50
2022/08/25 07:24:41;;;;;;;41.27;20.27;;;20.90;99.90;;;;;;5237725;28;20646;-49
2022/08/25 07:27:12;;;;;;;33.83;17.90;;;20.80;99.90;;;;;;5237470;28;20686;-49
2022/08/25 07:29:43;;;;;;;38.73;20.57;;;20.90;99.90;;;;;;5238233;28;20780;-48
2022/08/25 07:32:13;;;;;;;33.20;17.40;;;20.80;99.90;;;;;;5227329;28;20210;-48
2022/08/25 07:37:37;;;;;;;35.70;19.40;;;21.00;99.90;;;;;;5240257;28;20263;-48
2022/08/25 07:40:14;;;;;;;42.13;19.87;;;20.90;99.90;;;;;;5243281;28;20527;-50
2022/08/25 07:42:45;;;;;;;40.17;20.17;;;21.00;99.90;;;;;;5227956;28;20433;-47
2022/08/25 07:45:17;;;;;;;36.53;19.07;;;21.00;99.90;;;;;;5240691;28;20924;-49
2022/08/25 07:47:49;;;;;;;40.50;19.13;;;21.20;99.90;;;;;;5244531;28;20206;-48
2022/08/25 07:50:20;;;;;;;44.50;20.33;;;21.40;99.90;;;;;;5235398;28;20537;-49
2022/08/25 07:52:51;;;;;;;51.03;21.53;;;21.40;99.90;;;;;;5236937;28;20468;-49
2022/08/25 07:55:23;;;;;;;38.67;19.40;;;21.30;99.90;;;;;;5243642;28;20456;-48
2022/08/25 07:57:55;;;;;;;38.43;20.07;;;21.40;99.90;;;;;;5250246;28;20496;-49
2022/08/25 08:00:28;;;;;;;38.70;21.90;;;21.40;99.90;;;;;;5249431;28;22180;-49
2022/08/25 08:03:01;;;;;;;42.90;19.67;;;21.30;99.90;;;;;;5244397;28;20471;-48
2022/08/25 08:05:32;;;;;;;38.57;19.10;;;21.50;99.90;;;;;;5244458;28;20436;-48
2022/08/25 08:08:03;;;;;;;34.47;18.93;;;21.60;99.90;;;;;;5241680;28;21013;-50
2022/08/25 08:10:33;;;;;;;34.83;19.50;;;21.80;99.90;;;;;;5244740;28;20186;-48
2022/08/25 08:13:04;;;;;;;35.07;20.10;;;22.20;99.90;;;;;;5243164;28;20216;-51
2022/08/25 08:15:36;;;;;;;36.10;19.67;;;22.60;99.90;;;;;;5240180;28;20190;-53
2022/08/25 08:18:07;;;;;;;33.43;19.87;;;22.60;99.90;;;;;;5243373;28;20206;-49
2022/08/25 08:20:37;;;;;;;35.23;18.93;;;22.70;99.90;;;;;;5239603;28;20475;-51
2022/08/25 08:23:08;;;;;;;28.93;16.37;;;22.70;99.90;;;;;;5239207;28;20472;-51
2022/08/25 08:25:38;;;;;;;31.47;17.17;;;22.80;99.90;;;;;;5235983;28;20677;-49
2022/08/25 08:28:09;;;;;;;34.37;17.60;;;22.80;99.90;;;;;;5237947;28;20227;-50
2022/08/25 08:30:40;;;;;;;37.13;17.27;;;22.80;99.90;;;;;;5241687;28;20182;-51
2022/08/25 08:33:11;;;;;;;31.53;17.60;;;22.90;99.90;;;;;;5246075;28;20282;-50
2022/08/25 08:35:42;;;;;;;29.53;16.80;;;22.80;99.90;;;;;;5240614;28;20187;-49
2022/08/25 08:38:13;;;;;;;27.20;15.37;;;22.80;99.90;;;;;;5253323;28;20452;-49
2022/08/25 08:44:12;;;;;;;29.83;16.27;;;23.20;99.90;;;;;;5218777;28;20597;-49
2022/08/25 08:46:55;;;;;;;22.50;14.37;;;23.60;99.90;;;;;;5244514;28;20477;-49
2022/08/25 08:49:38;;;;;;;15.80;11.97;;;24.20;99.90;;;;;;5238616;28;20515;-49
2022/08/25 08:52:10;;;;;;;20.60;11.40;;;24.50;99.90;;;;;;5241579;28;21005;-50
2022/08/25 08:54:44;;;;;;;17.40;11.60;;;24.50;99.90;;;;;;5251064;28;20444;-50
2022/08/25 08:57:18;;;;;;;18.20;11.27;;;24.70;99.90;;;;;;5236287;28;20452;-49
2022/08/25 08:59:56;;;;;;;15.27;10.67;;;25.10;99.90;;;;;;5243643;28;20467;-51
2022/08/25 09:02:29;;;;;;;8.57;7.53;;;25.60;99.90;;;;;;5238706;28;20474;-50
2022/08/25 09:05:07;;;;;;;14.40;9.60;;;25.80;99.90;;;;;;5241094;28;20594;-48
2022/08/25 09:07:47;;;;;;;20.80;10.30;;;25.60;99.90;;;;;;5236789;28;20448;-49
2022/08/25 09:10:19;;;;;;;14.90;10.20;;;25.10;99.90;;;;;;5233300;28;20444;-50
2022/08/25 09:13:21;;;;;;;11.73;9.43;;;24.80;99.90;;;;;;5255449;28;20461;-52
2022/08/25 09:19:28;;;;;;;18.83;10.53;;;24.60;99.90;;;;;;5244176;28;20600;-51
2022/08/25 09:22:15;;;;;;;18.30;10.57;;;24.70;99.90;;;;;;5243376;28;20514;-49
2022/08/25 09:24:54;;;;;;;14.90;10.40;;;24.60;99.90;;;;;;5243294;28;20495;-52
2022/08/25 09:27:44;;;;;;;11.67;9.47;;;24.30;99.90;;;;;;5263030;22;20487;-52
2022/08/25 09:30:18;;;;;;;15.90;9.40;;;24.10;99.90;;;;;;5245202;28;20452;-49
2022/08/25 09:33:00;;;;;;;17.20;9.80;;;24.10;99.90;;;;;;5242777;28;20875;-53
2022/08/25 09:35:35;;;;;;;16.37;10.47;;;24.00;99.90;;;;;;5241751;28;20527;-50
2022/08/25 09:38:12;;;;;;;11.53;8.20;;;24.00;99.90;;;;;;5241233;28;20452;-51
2022/08/25 09:40:46;;;;;;;8.87;8.07;;;24.00;99.90;;;;;;5235910;28;20957;-51
2022/08/25 09:43:31;;;;;;;13.30;9.13;;;24.30;99.90;;;;;;5232276;28;20566;-53
2022/08/25 09:46:04;;;;;;;11.60;9.87;;;24.60;99.90;;;;;;5237569;28;20440;-50
2022/08/25 09:48:43;;;;;;;14.20;9.37;;;24.40;99.90;;;;;;5245558;28;20971;-50
2022/08/25 09:51:19;;;;;;;24.50;10.20;;;24.20;99.90;;;;;;5244196;28;20436;-51
2022/08/25 09:53:57;;;;;;;23.63;9.20;;;24.20;99.90;;;;;;5239377;28;20528;-52
2022/08/25 09:56:30;;;;;;;11.17;8.70;;;24.20;99.90;;;;;;5243385;28;20431;-54
2022/08/25 09:59:36;;;;;;;12.17;7.97;;;24.60;99.90;;;;;;5240138;28;20437;-51
2022/08/25 10:02:24;;;;;;;11.13;9.40;;;25.00;99.90;;;;;;5171883;28;20957;-50
2022/08/25 10:04:57;;;;;;;22.73;9.63;;;25.00;99.90;;;;;;5229666;28;20960;-51
2022/08/25 10:07:37;;;;;;;11.80;8.73;;;25.10;99.90;;;;;;5244860;28;22116;-53
2022/08/25 10:10:24;;;;;;;14.83;9.23;;;25.30;99.90;;;;;;5241257;28;20932;-51
2022/08/25 10:12:58;;;;;;;11.23;7.63;;;25.40;99.90;;;;;;5238572;28;20467;-51
2022/08/25 10:15:33;;;;;;;14.87;7.70;;;25.30;99.90;;;;;;5236057;28;20438;-52
2022/08/25 10:18:24;;;;;;;10.20;6.63;;;25.40;99.90;;;;;;5241666;28;20452;-52
2022/08/25 10:21:03;;;;;;;10.30;7.30;;;25.30;99.90;;;;;;5240196;28;20458;-50
2022/08/25 10:23:39;;;;;;;9.87;7.00;;;25.10;99.90;;;;;;5253225;28;20528;-52
2022/08/25 10:26:27;;;;;;;9.90;7.33;;;25.10;99.90;;;;;;5229083;28;20439;-53
2022/08/25 10:29:48;;;;;;;9.90;6.60;;;25.10;99.90;;;;;;5244332;28;20448;-51
2022/08/25 10:32:37;;;;;;;9.47;6.93;;;25.10;99.90;;;;;;5207411;28;20461;-50
2022/08/25 10:35:33;;;;;;;9.83;7.50;;;25.10;99.90;;;;;;5238405;28;21034;-49
2022/08/25 10:38:34;;;;;;;11.23;6.57;;;24.90;99.90;;;;;;5239287;28;20477;-50
2022/08/25 10:41:12;;;;;;;6.23;5.60;;;25.00;99.90;;;;;;5232793;28;20420;-52
2022/08/25 10:45:41;;;;;;;7.07;6.47;;;25.30;99.90;;;;;;5243229;28;20982;-52
2022/08/25 10:47:08;;;;;;;13.00;6.30;;;25.40;99.90;;;;;;5241257;28;20460;-54
2022/08/25 10:49:53;;;;;;;10.03;6.40;;;25.30;99.90;;;;;;5253392;28;20529;-51
2022/08/25 10:52:42;;;;;;;12.10;6.37;;;25.30;99.90;;;;;;5234453;28;20569;-52
2022/08/25 10:55:43;;;;;;;7.23;5.73;;;25.60;99.90;;;;;;5254470;28;20523;-51
2022/08/25 10:58:53;;;;;;;11.07;6.90;;;25.60;99.90;;;;;;5242924;28;20533;-51
2022/08/25 11:01:30;;;;;;;8.17;5.93;;;25.70;99.90;;;;;;5250274;28;20433;-52
2022/08/25 11:04:08;;;;;;;7.13;6.40;;;25.90;99.90;;;;;;5239094;28;20436;-51
2022/08/25 11:06:45;;;;;;;14.13;6.90;;;26.30;99.90;;;;;;5246080;28;20479;-51
2022/08/25 11:09:24;;;;;;;12.83;5.07;;;26.40;99.90;;;;;;5243476;28;20439;-51
2022/08/25 11:11:59;;;;;;;8.40;5.57;;;26.50;99.90;;;;;;5239351;28;20529;-51
2022/08/25 11:14:35;;;;;;;21.30;6.40;;;26.70;99.90;;;;;;5241638;28;20479;-53
2022/08/25 11:17:13;;;;;;;7.83;5.83;;;26.70;99.90;;;;;;5233926;28;20784;-50
2022/08/25 11:19:47;;;;;;;8.70;5.47;;;26.30;99.90;;;;;;5234669;28;20474;-54
2022/08/25 11:22:52;;;;;;;10.63;5.37;;;26.00;99.90;;;;;;5249393;28;21018;-50
2022/08/25 11:25:42;;;;;;;13.93;6.10;;;25.80;99.90;;;;;;5248411;28;20428;-53
2022/08/25 11:28:17;;;;;;;10.63;6.10;;;25.80;99.90;;;;;;5258138;28;20991;-54
2022/08/25 11:30:50;;;;;;;10.50;6.57;;;25.90;99.90;;;;;;5237679;28;20523;-50
2022/08/25 11:33:24;;;;;;;9.83;5.93;;;26.10;99.90;;;;;;5245506;28;20902;-50
2022/08/25 11:36:04;;;;;;;16.43;6.00;;;26.20;99.90;;;;;;5244838;28;20431;-54
2022/08/25 11:39:02;;;;;;;5.80;4.37;;;26.40;99.90;;;;;;5254177;28;20460;-51
2022/08/25 11:42:11;;;;;;;9.33;5.73;;;26.50;99.90;;;;;;5245000;28;20444;-53
2022/08/25 11:45:00;;;;;;;12.33;6.00;;;26.70;99.90;;;;;;5236233;28;20458;-51
2022/08/25 11:47:40;;;;;;;8.77;5.73;;;26.80;99.90;;;;;;5247649;28;20464;-53
2022/08/25 11:50:28;;;;;;;10.90;7.00;;;26.50;99.90;;;;;;5258506;28;20445;-54
2022/08/25 11:53:10;;;;;;;8.10;4.50;;;26.20;99.90;;;;;;5239268;28;21003;-53
2022/08/25 11:55:51;;;;;;;22.40;5.83;;;26.10;99.90;;;;;;5247624;28;20745;-53
2022/08/25 11:58:27;;;;;;;7.80;5.97;;;26.20;99.90;;;;;;5245068;28;20444;-52
2022/08/25 12:01:00;;;;;;;10.37;4.90;;;26.30;99.90;;;;;;5233176;28;20439;-53
2022/08/25 12:03:33;;;;;;;16.00;5.07;;;26.50;99.90;;;;;;5240396;28;20448;-52
2022/08/25 12:06:18;;;;;;;10.80;5.07;;;26.80;99.90;;;;;;5247307;28;20472;-50
2022/08/25 12:09:04;;;;;;;7.37;5.03;;;26.90;99.90;;;;;;5250607;28;20885;-54
2022/08/25 12:11:41;;;;;;;6.77;4.50;;;27.20;99.90;;;;;;5247666;28;20470;-52
2022/08/25 12:14:20;;;;;;;7.23;4.97;;;27.10;99.90;;;;;;5241160;28;21001;-54
2022/08/25 12:16:54;;;;;;;8.27;4.63;;;26.90;99.90;;;;;;5239815;28;20451;-51
2022/08/25 12:19:33;;;;;;;7.73;4.80;;;26.90;99.90;;;;;;5239421;28;20581;-53
2022/08/25 12:22:04;;;;;;;12.87;5.47;;;26.80;99.90;;;;;;5235169;28;20971;-53
2022/08/25 12:24:51;;;;;;;13.13;5.07;;;26.80;99.90;;;;;;5241597;28;20436;-54
2022/08/25 12:27:37;;;;;;;10.23;4.30;;;26.80;99.90;;;;;;5234504;28;20213;-53
2022/08/25 12:30:14;;;;;;;6.30;4.77;;;26.70;99.90;;;;;;5237246;28;20445;-53
2022/08/25 12:32:59;;;;;;;9.47;5.30;;;26.50;99.90;;;;;;5243256;28;20825;-54
2022/08/25 12:35:52;;;;;;;11.60;5.37;;;26.30;99.90;;;;;;5236037;28;20512;-51
2022/08/25 12:38:34;;;;;;;11.63;5.80;;;26.30;99.90;;;;;;5247007;28;20464;-52
2022/08/25 12:41:19;;;;;;;22.63;6.30;;;26.30;99.90;;;;;;5246746;28;21205;-51
2022/08/25 12:43:53;;;;;;;15.87;5.90;;;26.20;99.90;;;;;;5239624;28;20436;-51
2022/08/25 12:46:26;;;;;;;11.80;6.23;;;26.20;99.90;;;;;;5243153;28;20517;-52
2022/08/25 12:49:33;;;;;;;22.03;5.40;;;26.10;99.90;;;;;;5241910;28;20858;-50
2022/08/25 12:52:14;;;;;;;11.80;4.53;;;26.30;99.90;;;;;;5239325;28;20456;-52
2022/08/25 12:54:57;;;;;;;10.50;5.43;;;26.80;99.90;;;;;;5246174;28;20476;-53
2022/08/25 12:57:41;;;;;;;5.90;5.00;;;27.20;99.90;;;;;;5242137;28;20452;-52
2022/08/25 13:00:16;;;;;;;7.20;4.80;;;27.40;99.90;;;;;;5240195;28;20906;-52
2022/08/25 13:02:58;;;;;;;9.17;4.90;;;27.60;99.90;;;;;;5248137;28;20492;-53
2022/08/25 13:06:15;;;;;;;10.23;5.20;;;27.90;99.90;;;;;;5246353;28;20440;-53
2022/08/25 13:09:18;;;;;;;5.93;5.00;;;28.00;99.90;;;;;;5232221;28;20469;-53
2022/08/25 13:12:15;;;;;;;13.97;4.53;;;28.20;99.90;;;;;;5252317;28;20459;-51
2022/08/25 13:14:53;;;;;;;8.63;5.23;;;28.10;99.90;;;;;;5248957;28;20563;-52
2022/08/25 13:17:31;;;;;;;5.90;4.63;;;28.10;99.90;;;;;;5241191;28;20452;-52
2022/08/25 13:20:18;;;;;;;11.03;4.40;;;27.90;99.90;;;;;;5224575;28;20974;-53
2022/08/25 13:22:52;;;;;;;5.53;4.90;;;27.40;99.90;;;;;;5235454;28;20428;-52
2022/08/25 13:25:26;;;;;;;7.30;5.23;;;27.10;99.90;;;;;;5258855;28;20436;-51
2022/08/25 13:27:59;;;;;;;18.50;5.37;;;26.80;99.90;;;;;;5241456;28;20531;-50
2022/08/25 13:30:33;;;;;;;9.40;5.43;;;26.70;99.90;;;;;;5240098;28;20440;-51